sensor_id;sensor_type;location;lat;lon;timestamp;P1;durP1;ratioP1;P2;durP2;ratioP2
66601;SDS011;53459;51.828;7.872;2022-12-07T00:02:18;52.27;;;26.87;;
66601;SDS011;53459;51.828;7.872;2022-12-07T00:04:43;58.43;;;28.20;;
66601;SDS011;53459;51.828;7.872;2022-12-07T00:07:08;52.85;;;26.63;;
66601;SDS011;53459;51.828;7.872;2022-12-07T00:09:34;51.67;;;27.50;;
66601;SDS011;53459;51.828;7.872;2022-12-07T00:11:59;48.73;;;26.80;;
66601;SDS011;53459;51.828;7.872;2022-12-07T00:14:24;46.93;;;25.07;;
66601;SDS011;53459;51.828;7.872;2022-12-07T00:16:50;48.43;;;25.80;;
66601;SDS011;53459;51.828;7.872;2022-12-07T00:19:16;45.38;;;24.33;;
66601;SDS011;53459;51.828;7.872;2022-12-07T00:21:41;46.50;;;25.17;;
66601;SDS011;53459;51.828;7.872;2022-12-07T00:24:07;44.83;;;24.52;;
66601;SDS011;53459;51.828;7.872;2022-12-07T00:26:34;44.97;;;24.77;;
66601;SDS011;53459;51.828;7.872;2022-12-07T00:31:01;47.00;;;23.05;;
66601;SDS011;53459;51.828;7.872;2022-12-07T00:33:27;43.20;;;22.93;;
66601;SDS011;53459;51.828;7.872;2022-12-07T00:36:27;39.58;;;22.15;;
66601;SDS011;53459;51.828;7.872;2022-12-07T00:38:57;42.93;;;22.53;;
66601;SDS011;53459;51.828;7.872;2022-12-07T00:41:23;44.80;;;23.38;;
66601;SDS011;53459;51.828;7.872;2022-12-07T00:43:49;37.92;;;20.75;;
66601;SDS011;53459;51.828;7.872;2022-12-07T00:46:15;39.93;;;21.50;;
66601;SDS011;53459;51.828;7.872;2022-12-07T00:48:41;39.35;;;20.65;;
66601;SDS011;53459;51.828;7.872;2022-12-07T00:51:06;40.85;;;21.23;;
66601;SDS011;53459;51.828;7.872;2022-12-07T00:53:35;39.40;;;20.70;;
66601;SDS011;53459;51.828;7.872;2022-12-07T00:56:04;38.83;;;21.40;;
66601;SDS011;53459;51.828;7.872;2022-12-07T00:58:30;42.50;;;22.88;;
66601;SDS011;53459;51.828;7.872;2022-12-07T01:00:55;37.17;;;21.43;;
66601;SDS011;53459;51.828;7.872;2022-12-07T01:03:24;37.57;;;21.50;;
66601;SDS011;53459;51.828;7.872;2022-12-07T01:05:50;34.25;;;19.63;;
66601;SDS011;53459;51.828;7.872;2022-12-07T01:08:16;37.75;;;19.38;;
66601;SDS011;53459;51.828;7.872;2022-12-07T01:10:42;36.90;;;19.37;;
66601;SDS011;53459;51.828;7.872;2022-12-07T01:13:07;37.70;;;20.45;;
66601;SDS011;53459;51.828;7.872;2022-12-07T01:15:33;39.27;;;19.30;;
66601;SDS011;53459;51.828;7.872;2022-12-07T01:17:58;36.53;;;19.13;;
66601;SDS011;53459;51.828;7.872;2022-12-07T01:20:23;37.57;;;18.97;;
66601;SDS011;53459;51.828;7.872;2022-12-07T01:23:50;35.58;;;19.52;;
66601;SDS011;53459;51.828;7.872;2022-12-07T01:26:18;36.20;;;18.83;;
66601;SDS011;53459;51.828;7.872;2022-12-07T01:28:44;31.67;;;17.50;;
66601;SDS011;53459;51.828;7.872;2022-12-07T01:31:14;32.08;;;18.05;;
66601;SDS011;53459;51.828;7.872;2022-12-07T01:33:43;32.60;;;17.33;;
66601;SDS011;53459;51.828;7.872;2022-12-07T01:38:38;31.27;;;17.63;;
66601;SDS011;53459;51.828;7.872;2022-12-07T01:41:03;31.40;;;17.00;;
66601;SDS011;53459;51.828;7.872;2022-12-07T01:43:29;31.13;;;17.40;;
66601;SDS011;53459;51.828;7.872;2022-12-07T01:45:55;32.65;;;15.93;;
66601;SDS011;53459;51.828;7.872;2022-12-07T01:48:35;30.08;;;16.33;;
66601;SDS011;53459;51.828;7.872;2022-12-07T01:51:04;29.35;;;16.02;;
66601;SDS011;53459;51.828;7.872;2022-12-07T01:53:30;31.55;;;16.88;;
66601;SDS011;53459;51.828;7.872;2022-12-07T01:55:57;30.03;;;16.40;;
66601;SDS011;53459;51.828;7.872;2022-12-07T01:58:23;29.63;;;15.38;;
66601;SDS011;53459;51.828;7.872;2022-12-07T02:00:49;30.43;;;15.83;;
66601;SDS011;53459;51.828;7.872;2022-12-07T02:03:17;28.60;;;16.25;;
66601;SDS011;53459;51.828;7.872;2022-12-07T02:05:43;30.53;;;16.83;;
66601;SDS011;53459;51.828;7.872;2022-12-07T02:08:10;32.80;;;16.15;;
66601;SDS011;53459;51.828;7.872;2022-12-07T02:10:36;31.10;;;17.30;;
66601;SDS011;53459;51.828;7.872;2022-12-07T02:13:02;30.50;;;16.60;;
66601;SDS011;53459;51.828;7.872;2022-12-07T02:15:33;28.67;;;16.25;;
66601;SDS011;53459;51.828;7.872;2022-12-07T02:18:06;29.00;;;15.45;;
66601;SDS011;53459;51.828;7.872;2022-12-07T02:20:33;29.88;;;16.50;;
66601;SDS011;53459;51.828;7.872;2022-12-07T02:28:27;29.53;;;15.87;;
66601;SDS011;53459;51.828;7.872;2022-12-07T02:30:54;28.77;;;15.95;;
66601;SDS011;53459;51.828;7.872;2022-12-07T02:36:50;29.63;;;15.15;;
66601;SDS011;53459;51.828;7.872;2022-12-07T02:41:46;27.63;;;14.70;;
66601;SDS011;53459;51.828;7.872;2022-12-07T02:44:16;30.02;;;15.73;;
66601;SDS011;53459;51.828;7.872;2022-12-07T02:46:43;32.10;;;16.70;;
66601;SDS011;53459;51.828;7.872;2022-12-07T02:49:09;32.83;;;16.88;;
66601;SDS011;53459;51.828;7.872;2022-12-07T02:51:38;34.58;;;17.73;;
66601;SDS011;53459;51.828;7.872;2022-12-07T02:54:53;37.60;;;18.50;;
66601;SDS011;53459;51.828;7.872;2022-12-07T02:57:25;36.10;;;18.27;;
66601;SDS011;53459;51.828;7.872;2022-12-07T03:00:07;40.13;;;19.08;;
66601;SDS011;53459;51.828;7.872;2022-12-07T03:06:31;41.92;;;19.13;;
66601;SDS011;53459;51.828;7.872;2022-12-07T03:14:19;40.55;;;19.15;;
66601;SDS011;53459;51.828;7.872;2022-12-07T03:16:49;42.22;;;19.27;;
66601;SDS011;53459;51.828;7.872;2022-12-07T03:19:17;38.47;;;18.55;;
66601;SDS011;53459;51.828;7.872;2022-12-07T03:21:44;41.33;;;19.55;;
66601;SDS011;53459;51.828;7.872;2022-12-07T03:24:15;40.97;;;19.77;;
66601;SDS011;53459;51.828;7.872;2022-12-07T03:26:42;43.55;;;20.08;;
66601;SDS011;53459;51.828;7.872;2022-12-07T03:29:10;40.53;;;19.65;;
66601;SDS011;53459;51.828;7.872;2022-12-07T03:31:41;41.63;;;19.80;;
66601;SDS011;53459;51.828;7.872;2022-12-07T03:34:11;38.70;;;19.00;;
66601;SDS011;53459;51.828;7.872;2022-12-07T03:36:40;41.17;;;18.40;;
66601;SDS011;53459;51.828;7.872;2022-12-07T03:39:26;42.40;;;19.17;;
66601;SDS011;53459;51.828;7.872;2022-12-07T03:41:52;45.90;;;19.42;;
66601;SDS011;53459;51.828;7.872;2022-12-07T03:44:18;46.40;;;20.47;;
66601;SDS011;53459;51.828;7.872;2022-12-07T03:49:26;46.30;;;21.35;;
66601;SDS011;53459;51.828;7.872;2022-12-07T03:52:01;49.70;;;21.25;;
66601;SDS011;53459;51.828;7.872;2022-12-07T03:54:32;48.55;;;22.75;;
66601;SDS011;53459;51.828;7.872;2022-12-07T03:56:59;51.63;;;22.40;;
66601;SDS011;53459;51.828;7.872;2022-12-07T03:59:26;50.30;;;22.33;;
66601;SDS011;53459;51.828;7.872;2022-12-07T04:01:53;53.03;;;24.13;;
66601;SDS011;53459;51.828;7.872;2022-12-07T04:04:19;55.78;;;23.60;;
66601;SDS011;53459;51.828;7.872;2022-12-07T04:06:45;56.90;;;22.93;;
66601;SDS011;53459;51.828;7.872;2022-12-07T04:09:10;59.05;;;24.48;;
66601;SDS011;53459;51.828;7.872;2022-12-07T04:11:35;57.55;;;23.48;;
66601;SDS011;53459;51.828;7.872;2022-12-07T04:14:01;58.20;;;25.60;;
66601;SDS011;53459;51.828;7.872;2022-12-07T04:16:45;65.70;;;26.42;;
66601;SDS011;53459;51.828;7.872;2022-12-07T04:19:11;67.30;;;27.58;;
66601;SDS011;53459;51.828;7.872;2022-12-07T04:21:36;65.77;;;26.53;;
66601;SDS011;53459;51.828;7.872;2022-12-07T04:24:02;58.47;;;24.77;;
66601;SDS011;53459;51.828;7.872;2022-12-07T04:26:27;68.20;;;27.27;;
66601;SDS011;53459;51.828;7.872;2022-12-07T04:28:53;72.10;;;27.47;;
66601;SDS011;53459;51.828;7.872;2022-12-07T04:31:18;68.03;;;28.13;;
66601;SDS011;53459;51.828;7.872;2022-12-07T04:33:43;59.83;;;23.63;;
66601;SDS011;53459;51.828;7.872;2022-12-07T04:36:09;62.90;;;24.83;;
66601;SDS011;53459;51.828;7.872;2022-12-07T04:38:34;62.23;;;25.73;;
66601;SDS011;53459;51.828;7.872;2022-12-07T04:41:04;57.97;;;23.63;;
66601;SDS011;53459;51.828;7.872;2022-12-07T04:43:29;59.15;;;24.50;;
66601;SDS011;53459;51.828;7.872;2022-12-07T04:45:54;56.65;;;22.25;;
66601;SDS011;53459;51.828;7.872;2022-12-07T04:48:20;53.70;;;23.10;;
66601;SDS011;53459;51.828;7.872;2022-12-07T04:50:47;53.90;;;23.13;;
66601;SDS011;53459;51.828;7.872;2022-12-07T04:53:13;53.83;;;21.92;;
66601;SDS011;53459;51.828;7.872;2022-12-07T04:55:38;53.47;;;22.90;;
66601;SDS011;53459;51.828;7.872;2022-12-07T04:58:04;48.97;;;21.67;;
66601;SDS011;53459;51.828;7.872;2022-12-07T05:00:29;51.50;;;21.67;;
66601;SDS011;53459;51.828;7.872;2022-12-07T05:02:55;51.30;;;22.03;;
66601;SDS011;53459;51.828;7.872;2022-12-07T05:05:20;49.40;;;22.23;;
66601;SDS011;53459;51.828;7.872;2022-12-07T05:07:45;50.73;;;21.50;;
66601;SDS011;53459;51.828;7.872;2022-12-07T05:10:11;49.13;;;19.98;;
66601;SDS011;53459;51.828;7.872;2022-12-07T05:12:36;51.72;;;20.85;;
66601;SDS011;53459;51.828;7.872;2022-12-07T05:15:02;44.77;;;19.57;;
66601;SDS011;53459;51.828;7.872;2022-12-07T05:17:27;43.87;;;19.97;;
66601;SDS011;53459;51.828;7.872;2022-12-07T05:19:52;49.40;;;19.77;;
66601;SDS011;53459;51.828;7.872;2022-12-07T05:22:18;43.77;;;19.23;;
66601;SDS011;53459;51.828;7.872;2022-12-07T05:24:43;40.67;;;19.53;;
66601;SDS011;53459;51.828;7.872;2022-12-07T05:27:09;44.47;;;19.93;;
66601;SDS011;53459;51.828;7.872;2022-12-07T05:29:34;46.03;;;19.88;;
66601;SDS011;53459;51.828;7.872;2022-12-07T05:31:59;45.38;;;20.02;;
66601;SDS011;53459;51.828;7.872;2022-12-07T05:34:25;45.80;;;20.23;;
66601;SDS011;53459;51.828;7.872;2022-12-07T05:36:50;45.47;;;20.70;;
66601;SDS011;53459;51.828;7.872;2022-12-07T05:39:16;45.77;;;19.33;;
66601;SDS011;53459;51.828;7.872;2022-12-07T05:41:41;46.43;;;19.60;;
66601;SDS011;53459;51.828;7.872;2022-12-07T05:44:25;50.28;;;21.25;;
66601;SDS011;53459;51.828;7.872;2022-12-07T05:46:50;46.57;;;20.77;;
66601;SDS011;53459;51.828;7.872;2022-12-07T05:49:16;47.87;;;19.30;;
66601;SDS011;53459;51.828;7.872;2022-12-07T05:51:41;45.07;;;20.03;;
66601;SDS011;53459;51.828;7.872;2022-12-07T05:54:07;45.40;;;19.77;;
66601;SDS011;53459;51.828;7.872;2022-12-07T05:56:32;46.23;;;19.97;;
66601;SDS011;53459;51.828;7.872;2022-12-07T05:58:57;50.03;;;21.00;;
66601;SDS011;53459;51.828;7.872;2022-12-07T06:01:41;52.47;;;21.00;;
66601;SDS011;53459;51.828;7.872;2022-12-07T06:04:07;48.23;;;19.70;;
66601;SDS011;53459;51.828;7.872;2022-12-07T06:06:32;48.22;;;19.35;;
66601;SDS011;53459;51.828;7.872;2022-12-07T06:10:39;48.17;;;19.48;;
66601;SDS011;53459;51.828;7.872;2022-12-07T06:13:05;43.93;;;18.93;;
66601;SDS011;53459;51.828;7.872;2022-12-07T06:15:30;45.13;;;17.30;;
66601;SDS011;53459;51.828;7.872;2022-12-07T06:17:55;42.47;;;18.00;;
66601;SDS011;53459;51.828;7.872;2022-12-07T06:22:22;42.25;;;18.17;;
66601;SDS011;53459;51.828;7.872;2022-12-07T06:24:48;44.47;;;18.47;;
66601;SDS011;53459;51.828;7.872;2022-12-07T06:27:15;43.33;;;17.63;;
66601;SDS011;53459;51.828;7.872;2022-12-07T06:29:41;40.75;;;17.33;;
66601;SDS011;53459;51.828;7.872;2022-12-07T06:32:09;43.60;;;19.17;;
66601;SDS011;53459;51.828;7.872;2022-12-07T06:34:35;40.33;;;17.35;;
66601;SDS011;53459;51.828;7.872;2022-12-07T06:37:00;40.60;;;16.43;;
66601;SDS011;53459;51.828;7.872;2022-12-07T06:39:26;38.83;;;16.07;;
66601;SDS011;53459;51.828;7.872;2022-12-07T06:41:52;36.50;;;16.03;;
66601;SDS011;53459;51.828;7.872;2022-12-07T06:44:18;37.05;;;15.63;;
66601;SDS011;53459;51.828;7.872;2022-12-07T06:46:43;40.17;;;15.67;;
66601;SDS011;53459;51.828;7.872;2022-12-07T06:49:09;35.72;;;14.60;;
66601;SDS011;53459;51.828;7.872;2022-12-07T06:51:35;37.83;;;15.53;;
66601;SDS011;53459;51.828;7.872;2022-12-07T06:54:02;34.43;;;15.03;;
66601;SDS011;53459;51.828;7.872;2022-12-07T06:56:28;36.85;;;14.27;;
66601;SDS011;53459;51.828;7.872;2022-12-07T06:58:53;36.60;;;14.10;;
66601;SDS011;53459;51.828;7.872;2022-12-07T07:01:19;33.43;;;13.73;;
66601;SDS011;53459;51.828;7.872;2022-12-07T07:03:45;34.08;;;13.55;;
66601;SDS011;53459;51.828;7.872;2022-12-07T07:06:10;31.93;;;12.50;;
66601;SDS011;53459;51.828;7.872;2022-12-07T07:08:36;35.03;;;13.15;;
66601;SDS011;53459;51.828;7.872;2022-12-07T07:11:02;33.90;;;13.98;;
66601;SDS011;53459;51.828;7.872;2022-12-07T07:15:30;32.53;;;14.20;;
66601;SDS011;53459;51.828;7.872;2022-12-07T07:17:55;28.13;;;13.20;;
66601;SDS011;53459;51.828;7.872;2022-12-07T07:22:50;31.92;;;12.93;;
66601;SDS011;53459;51.828;7.872;2022-12-07T07:25:16;31.70;;;13.43;;
66601;SDS011;53459;51.828;7.872;2022-12-07T07:27:41;34.80;;;13.53;;
66601;SDS011;53459;51.828;7.872;2022-12-07T07:30:07;32.78;;;13.68;;
66601;SDS011;53459;51.828;7.872;2022-12-07T07:32:33;31.67;;;14.00;;
66601;SDS011;53459;51.828;7.872;2022-12-07T07:34:58;33.33;;;14.18;;
66601;SDS011;53459;51.828;7.872;2022-12-07T07:37:23;36.53;;;14.20;;
66601;SDS011;53459;51.828;7.872;2022-12-07T07:39:49;37.57;;;15.03;;
66601;SDS011;53459;51.828;7.872;2022-12-07T07:42:14;34.57;;;14.13;;
66601;SDS011;53459;51.828;7.872;2022-12-07T07:44:40;35.07;;;14.97;;
66601;SDS011;53459;51.828;7.872;2022-12-07T07:47:05;35.40;;;14.50;;
66601;SDS011;53459;51.828;7.872;2022-12-07T07:49:31;35.60;;;15.60;;
66601;SDS011;53459;51.828;7.872;2022-12-07T07:51:56;37.97;;;15.40;;
66601;SDS011;53459;51.828;7.872;2022-12-07T07:54:22;38.17;;;16.20;;
66601;SDS011;53459;51.828;7.872;2022-12-07T07:56:47;40.20;;;17.17;;
66601;SDS011;53459;51.828;7.872;2022-12-07T07:59:12;38.80;;;15.40;;
66601;SDS011;53459;51.828;7.872;2022-12-07T08:01:39;37.38;;;14.68;;
66601;SDS011;53459;51.828;7.872;2022-12-07T08:04:05;36.33;;;15.03;;
66601;SDS011;53459;51.828;7.872;2022-12-07T08:06:30;34.73;;;14.40;;
66601;SDS011;53459;51.828;7.872;2022-12-07T08:08:55;36.50;;;14.75;;
66601;SDS011;53459;51.828;7.872;2022-12-07T08:11:23;35.95;;;14.60;;
66601;SDS011;53459;51.828;7.872;2022-12-07T08:13:48;36.23;;;14.50;;
66601;SDS011;53459;51.828;7.872;2022-12-07T08:16:14;33.90;;;15.13;;
66601;SDS011;53459;51.828;7.872;2022-12-07T08:18:40;33.72;;;13.95;;
66601;SDS011;53459;51.828;7.872;2022-12-07T08:21:06;36.97;;;13.80;;
66601;SDS011;53459;51.828;7.872;2022-12-07T08:23:32;31.65;;;14.27;;
66601;SDS011;53459;51.828;7.872;2022-12-07T08:26:06;37.88;;;14.98;;
66601;SDS011;53459;51.828;7.872;2022-12-07T08:28:31;32.17;;;12.93;;
66601;SDS011;53459;51.828;7.872;2022-12-07T08:31:01;32.33;;;12.52;;
66601;SDS011;53459;51.828;7.872;2022-12-07T08:33:26;33.38;;;12.38;;
66601;SDS011;53459;51.828;7.872;2022-12-07T08:38:00;32.38;;;12.90;;
66601;SDS011;53459;51.828;7.872;2022-12-07T08:40:27;29.77;;;11.57;;
66601;SDS011;53459;51.828;7.872;2022-12-07T08:42:52;29.63;;;11.93;;
66601;SDS011;53459;51.828;7.872;2022-12-07T08:45:18;27.73;;;12.25;;
66601;SDS011;53459;51.828;7.872;2022-12-07T08:47:46;28.05;;;11.73;;
66601;SDS011;53459;51.828;7.872;2022-12-07T08:50:12;28.92;;;11.93;;
66601;SDS011;53459;51.828;7.872;2022-12-07T08:52:38;29.58;;;11.27;;
66601;SDS011;53459;51.828;7.872;2022-12-07T08:55:05;29.83;;;12.07;;
66601;SDS011;53459;51.828;7.872;2022-12-07T08:57:31;30.77;;;12.13;;
66601;SDS011;53459;51.828;7.872;2022-12-07T08:59:58;27.00;;;12.18;;
66601;SDS011;53459;51.828;7.872;2022-12-07T09:02:24;29.00;;;11.53;;
66601;SDS011;53459;51.828;7.872;2022-12-07T09:04:49;31.47;;;12.50;;
66601;SDS011;53459;51.828;7.872;2022-12-07T09:07:15;34.83;;;14.17;;
66601;SDS011;53459;51.828;7.872;2022-12-07T09:09:40;32.28;;;13.35;;
66601;SDS011;53459;51.828;7.872;2022-12-07T09:12:06;34.90;;;14.10;;
66601;SDS011;53459;51.828;7.872;2022-12-07T09:14:31;34.30;;;14.10;;
66601;SDS011;53459;51.828;7.872;2022-12-07T09:17:04;31.97;;;13.00;;
66601;SDS011;53459;51.828;7.872;2022-12-07T09:19:30;36.10;;;13.90;;
66601;SDS011;53459;51.828;7.872;2022-12-07T09:21:55;35.07;;;14.63;;
66601;SDS011;53459;51.828;7.872;2022-12-07T09:24:21;28.70;;;12.65;;
66601;SDS011;53459;51.828;7.872;2022-12-07T09:26:47;29.50;;;12.65;;
66601;SDS011;53459;51.828;7.872;2022-12-07T09:29:13;24.90;;;11.10;;
66601;SDS011;53459;51.828;7.872;2022-12-07T09:31:38;23.47;;;10.03;;
66601;SDS011;53459;51.828;7.872;2022-12-07T09:34:04;24.23;;;10.70;;
66601;SDS011;53459;51.828;7.872;2022-12-07T09:36:34;23.33;;;9.63;;
66601;SDS011;53459;51.828;7.872;2022-12-07T09:39:00;20.55;;;8.73;;
66601;SDS011;53459;51.828;7.872;2022-12-07T09:41:25;20.70;;;8.93;;
66601;SDS011;53459;51.828;7.872;2022-12-07T09:43:52;22.02;;;8.80;;
66601;SDS011;53459;51.828;7.872;2022-12-07T09:47:42;20.38;;;7.65;;
66601;SDS011;53459;51.828;7.872;2022-12-07T09:50:12;21.08;;;7.90;;
66601;SDS011;53459;51.828;7.872;2022-12-07T09:52:38;17.73;;;8.13;;
66601;SDS011;53459;51.828;7.872;2022-12-07T09:55:08;17.50;;;7.27;;
66601;SDS011;53459;51.828;7.872;2022-12-07T09:57:34;18.10;;;7.15;;
66601;SDS011;53459;51.828;7.872;2022-12-07T10:00:03;18.17;;;7.32;;
66601;SDS011;53459;51.828;7.872;2022-12-07T10:02:36;20.92;;;7.15;;
66601;SDS011;53459;51.828;7.872;2022-12-07T10:05:06;17.90;;;7.35;;
66601;SDS011;53459;51.828;7.872;2022-12-07T10:07:34;20.95;;;7.68;;
66601;SDS011;53459;51.828;7.872;2022-12-07T10:10:02;18.30;;;7.30;;
66601;SDS011;53459;51.828;7.872;2022-12-07T10:12:28;19.52;;;7.25;;
66601;SDS011;53459;51.828;7.872;2022-12-07T10:14:55;20.20;;;7.80;;
66601;SDS011;53459;51.828;7.872;2022-12-07T10:17:35;16.98;;;6.70;;
66601;SDS011;53459;51.828;7.872;2022-12-07T10:20:34;18.35;;;7.25;;
66601;SDS011;53459;51.828;7.872;2022-12-07T10:25:21;17.48;;;7.00;;
66601;SDS011;53459;51.828;7.872;2022-12-07T10:28:00;24.45;;;8.10;;
66601;SDS011;53459;51.828;7.872;2022-12-07T10:30:26;19.05;;;7.40;;
66601;SDS011;53459;51.828;7.872;2022-12-07T10:32:52;18.83;;;6.95;;
66601;SDS011;53459;51.828;7.872;2022-12-07T10:35:19;18.47;;;6.37;;
66601;SDS011;53459;51.828;7.872;2022-12-07T10:37:45;18.87;;;6.90;;
66601;SDS011;53459;51.828;7.872;2022-12-07T10:40:30;18.63;;;7.32;;
66601;SDS011;53459;51.828;7.872;2022-12-07T10:45:34;18.38;;;6.22;;
66601;SDS011;53459;51.828;7.872;2022-12-07T10:48:15;13.77;;;5.37;;
66601;SDS011;53459;51.828;7.872;2022-12-07T10:50:53;14.80;;;5.35;;
66601;SDS011;53459;51.828;7.872;2022-12-07T11:04:28;13.60;;;4.87;;
66601;SDS011;53459;51.828;7.872;2022-12-07T11:07:14;12.68;;;4.50;;
66601;SDS011;53459;51.828;7.872;2022-12-07T11:09:51;12.27;;;4.57;;
66601;SDS011;53459;51.828;7.872;2022-12-07T11:12:30;12.93;;;4.10;;
66601;SDS011;53459;51.828;7.872;2022-12-07T11:15:14;14.40;;;4.70;;
66601;SDS011;53459;51.828;7.872;2022-12-07T11:17:48;11.38;;;4.07;;
66601;SDS011;53459;51.828;7.872;2022-12-07T11:22:49;10.07;;;3.92;;
66601;SDS011;53459;51.828;7.872;2022-12-07T11:27:52;12.67;;;3.83;;
66601;SDS011;53459;51.828;7.872;2022-12-07T11:30:24;11.10;;;3.70;;
66601;SDS011;53459;51.828;7.872;2022-12-07T11:32:59;9.27;;;3.35;;
66601;SDS011;53459;51.828;7.872;2022-12-07T11:35:34;12.60;;;3.13;;
66601;SDS011;53459;51.828;7.872;2022-12-07T11:38:07;14.07;;;3.65;;
66601;SDS011;53459;51.828;7.872;2022-12-07T11:40:34;10.82;;;3.80;;
66601;SDS011;53459;51.828;7.872;2022-12-07T11:43:05;13.20;;;3.10;;
66601;SDS011;53459;51.828;7.872;2022-12-07T11:45:35;9.07;;;3.50;;
66601;SDS011;53459;51.828;7.872;2022-12-07T11:55:26;11.35;;;3.03;;
66601;SDS011;53459;51.828;7.872;2022-12-07T11:57:58;11.13;;;3.20;;
66601;SDS011;53459;51.828;7.872;2022-12-07T12:00:28;15.15;;;3.00;;
66601;SDS011;53459;51.828;7.872;2022-12-07T12:05:37;11.17;;;2.80;;
66601;SDS011;53459;51.828;7.872;2022-12-07T12:08:17;15.63;;;2.80;;
66601;SDS011;53459;51.828;7.872;2022-12-07T12:11:05;12.15;;;2.72;;
66601;SDS011;53459;51.828;7.872;2022-12-07T12:16:52;8.83;;;2.50;;
66601;SDS011;53459;51.828;7.872;2022-12-07T12:21:33;11.87;;;2.57;;
66601;SDS011;53459;51.828;7.872;2022-12-07T12:24:42;11.37;;;2.73;;
66601;SDS011;53459;51.828;7.872;2022-12-07T12:26:53;11.60;;;3.20;;
66601;SDS011;53459;51.828;7.872;2022-12-07T12:29:26;11.50;;;2.47;;
66601;SDS011;53459;51.828;7.872;2022-12-07T12:34:38;10.27;;;2.60;;
66601;SDS011;53459;51.828;7.872;2022-12-07T12:37:14;11.52;;;2.53;;
66601;SDS011;53459;51.828;7.872;2022-12-07T12:40:12;12.55;;;2.80;;
66601;SDS011;53459;51.828;7.872;2022-12-07T12:42:45;9.93;;;2.50;;
66601;SDS011;53459;51.828;7.872;2022-12-07T12:45:22;10.25;;;2.40;;
66601;SDS011;53459;51.828;7.872;2022-12-07T12:47:59;10.63;;;2.50;;
66601;SDS011;53459;51.828;7.872;2022-12-07T12:50:32;10.38;;;2.47;;
66601;SDS011;53459;51.828;7.872;2022-12-07T13:00:45;10.23;;;2.70;;
66601;SDS011;53459;51.828;7.872;2022-12-07T13:03:27;11.98;;;2.90;;
66601;SDS011;53459;51.828;7.872;2022-12-07T13:08:39;10.25;;;2.50;;
66601;SDS011;53459;51.828;7.872;2022-12-07T13:14:51;10.53;;;2.77;;
66601;SDS011;53459;51.828;7.872;2022-12-07T13:16:55;10.82;;;2.50;;
66601;SDS011;53459;51.828;7.872;2022-12-07T13:19:54;12.70;;;3.10;;
66601;SDS011;53459;51.828;7.872;2022-12-07T13:24:56;11.25;;;2.95;;
66601;SDS011;53459;51.828;7.872;2022-12-07T13:27:21;9.82;;;2.80;;
66601;SDS011;53459;51.828;7.872;2022-12-07T13:29:47;9.27;;;2.63;;
66601;SDS011;53459;51.828;7.872;2022-12-07T13:32:27;10.17;;;2.93;;
66601;SDS011;53459;51.828;7.872;2022-12-07T13:34:52;11.18;;;3.10;;
66601;SDS011;53459;51.828;7.872;2022-12-07T13:37:25;11.40;;;3.40;;
66601;SDS011;53459;51.828;7.872;2022-12-07T13:39:52;12.83;;;3.10;;
66601;SDS011;53459;51.828;7.872;2022-12-07T13:42:31;13.13;;;3.10;;
66601;SDS011;53459;51.828;7.872;2022-12-07T13:44:58;12.77;;;2.80;;
66601;SDS011;53459;51.828;7.872;2022-12-07T13:47:38;12.77;;;3.10;;
66601;SDS011;53459;51.828;7.872;2022-12-07T13:50:23;10.95;;;2.90;;
66601;SDS011;53459;51.828;7.872;2022-12-07T13:52:49;10.20;;;2.80;;
66601;SDS011;53459;51.828;7.872;2022-12-07T13:55:15;9.87;;;3.13;;
66601;SDS011;53459;51.828;7.872;2022-12-07T13:57:42;10.50;;;2.72;;
66601;SDS011;53459;51.828;7.872;2022-12-07T14:00:16;9.48;;;3.20;;
66601;SDS011;53459;51.828;7.872;2022-12-07T14:03:42;10.70;;;2.92;;
66601;SDS011;53459;51.828;7.872;2022-12-07T14:05:40;11.60;;;3.08;;
66601;SDS011;53459;51.828;7.872;2022-12-07T14:10:36;10.48;;;2.80;;
66601;SDS011;53459;51.828;7.872;2022-12-07T14:13:03;10.50;;;2.78;;
66601;SDS011;53459;51.828;7.872;2022-12-07T14:15:49;8.90;;;2.53;;
66601;SDS011;53459;51.828;7.872;2022-12-07T14:18:25;8.38;;;2.28;;
66601;SDS011;53459;51.828;7.872;2022-12-07T14:23:05;9.90;;;2.10;;
66601;SDS011;53459;51.828;7.872;2022-12-07T14:26:03;11.30;;;2.22;;
66601;SDS011;53459;51.828;7.872;2022-12-07T14:28:32;9.50;;;2.40;;
66601;SDS011;53459;51.828;7.872;2022-12-07T14:30:58;9.07;;;1.90;;
66601;SDS011;53459;51.828;7.872;2022-12-07T14:33:24;11.10;;;2.30;;
66601;SDS011;53459;51.828;7.872;2022-12-07T14:35:49;10.90;;;2.30;;
66601;SDS011;53459;51.828;7.872;2022-12-07T14:38:15;9.63;;;2.00;;
66601;SDS011;53459;51.828;7.872;2022-12-07T14:40:43;11.27;;;2.33;;
66601;SDS011;53459;51.828;7.872;2022-12-07T14:43:10;10.40;;;2.17;;
66601;SDS011;53459;51.828;7.872;2022-12-07T14:45:36;8.77;;;2.23;;
66601;SDS011;53459;51.828;7.872;2022-12-07T14:49:27;13.43;;;2.42;;
66601;SDS011;53459;51.828;7.872;2022-12-07T14:51:53;14.40;;;2.23;;
66601;SDS011;53459;51.828;7.872;2022-12-07T14:54:19;13.63;;;2.33;;
66601;SDS011;53459;51.828;7.872;2022-12-07T14:56:45;11.70;;;2.38;;
66601;SDS011;53459;51.828;7.872;2022-12-07T14:59:14;9.68;;;2.15;;
66601;SDS011;53459;51.828;7.872;2022-12-07T15:01:39;10.45;;;2.25;;
66601;SDS011;53459;51.828;7.872;2022-12-07T15:04:04;10.77;;;2.10;;
66601;SDS011;53459;51.828;7.872;2022-12-07T15:06:30;9.77;;;2.30;;
66601;SDS011;53459;51.828;7.872;2022-12-07T15:08:55;11.30;;;2.10;;
66601;SDS011;53459;51.828;7.872;2022-12-07T15:11:21;9.98;;;2.20;;
66601;SDS011;53459;51.828;7.872;2022-12-07T15:13:46;14.97;;;2.40;;
66601;SDS011;53459;51.828;7.872;2022-12-07T15:16:30;11.10;;;2.23;;
66601;SDS011;53459;51.828;7.872;2022-12-07T15:18:56;12.52;;;2.25;;
66601;SDS011;53459;51.828;7.872;2022-12-07T15:21:22;14.17;;;2.40;;
66601;SDS011;53459;51.828;7.872;2022-12-07T15:23:47;13.47;;;2.20;;
66601;SDS011;53459;51.828;7.872;2022-12-07T15:26:13;12.20;;;2.22;;
66601;SDS011;53459;51.828;7.872;2022-12-07T15:28:39;13.45;;;2.47;;
66601;SDS011;53459;51.828;7.872;2022-12-07T15:31:10;9.33;;;1.80;;
66601;SDS011;53459;51.828;7.872;2022-12-07T15:33:36;10.73;;;1.58;;
66601;SDS011;53459;51.828;7.872;2022-12-07T15:36:01;7.73;;;1.50;;
66601;SDS011;53459;51.828;7.872;2022-12-07T15:38:27;10.07;;;1.40;;
66601;SDS011;53459;51.828;7.872;2022-12-07T15:40:53;7.55;;;1.50;;
66601;SDS011;53459;51.828;7.872;2022-12-07T15:43:19;7.97;;;1.10;;
66601;SDS011;53459;51.828;7.872;2022-12-07T15:46:02;10.13;;;1.27;;
66601;SDS011;53459;51.828;7.872;2022-12-07T15:48:28;9.65;;;1.40;;
66601;SDS011;53459;51.828;7.872;2022-12-07T15:50:53;9.30;;;1.50;;
66601;SDS011;53459;51.828;7.872;2022-12-07T15:53:27;9.00;;;1.50;;
66601;SDS011;53459;51.828;7.872;2022-12-07T15:55:52;7.57;;;1.33;;
66601;SDS011;53459;51.828;7.872;2022-12-07T15:58:18;10.07;;;1.70;;
66601;SDS011;53459;51.828;7.872;2022-12-07T16:00:43;11.07;;;1.65;;
66601;SDS011;53459;51.828;7.872;2022-12-07T16:03:09;8.47;;;1.70;;
66601;SDS011;53459;51.828;7.872;2022-12-07T16:05:34;9.63;;;1.37;;
66601;SDS011;53459;51.828;7.872;2022-12-07T16:08:00;10.85;;;1.58;;
66601;SDS011;53459;51.828;7.872;2022-12-07T16:10:25;10.97;;;1.80;;
66601;SDS011;53459;51.828;7.872;2022-12-07T16:12:50;10.17;;;1.93;;
66601;SDS011;53459;51.828;7.872;2022-12-07T16:15:16;9.43;;;2.07;;
66601;SDS011;53459;51.828;7.872;2022-12-07T16:17:41;12.57;;;2.22;;
66601;SDS011;53459;51.828;7.872;2022-12-07T16:20:07;11.17;;;2.10;;